»·PEaware :: AFL457 KDEN-KASE

AFL457 :: KDEN-KASE

FLIGHT INFORMATION

Flight Status: Arrived
Operator:
Aeroflot
More flights by this operator :: More flights under this callsign
Pilot: Alan S. (10569)
Aircraft: TUPOLEV TU-154
(T154)
More flights by this aircraft type
Origin: KDEN Denver Intl
United States
Destination: KASE Aspen-Pitkin Co/Sardy
United States
More flights between these airports :: More routes between these airports
Route: CONNR3 DBL
File this flight plan on PilotEdge
Remarks: AEROFLOT
Altitude:
(Current/Filed)
20,000ft
Speed:
(Current/Filed)
460kts
Departed: 25-May-17 03:41 PM
Arrived: 25-May-17 04:15 PM
Distance/Time
Traveled:
109nm/0:34
Distance/Time
To Go:
Arrived

Flight Plot

Page will automatically refresh every two minutes.


Map Options




Map Legend


Flown Route
Filed Route
Departure Airport
Arrival Airport
Navaid (VOR, NDB)
Fix

Horizontal Profiles

Position Reports

Time Latitude Longitude Heading Altitude Ground
Speed
25-May-17 15:23 39.863623 -104.678188 177 5330ft 0kts
25-May-17 15:24 39.863623 -104.678188 177 5330ft 0kts
25-May-17 15:25 39.863623 -104.678188 177 5330ft 0kts
25-May-17 15:26 39.863623 -104.678188 177 5330ft 0kts
25-May-17 15:27 39.863623 -104.678188 177 5330ft 0kts
25-May-17 15:28 39.863623 -104.678188 177 5330ft 0kts
25-May-17 15:29 39.863623 -104.678188 177 5330ft 0kts
25-May-17 15:30 39.863623 -104.678188 177 5330ft 0kts
25-May-17 15:31 39.863623 -104.678188 177 5330ft 0kts
25-May-17 15:32 39.863623 -104.678188 177 5330ft 0kts
25-May-17 15:33 39.863623 -104.678188 177 5330ft 0kts
25-May-17 15:34 39.863623 -104.678188 177 5330ft 0kts
25-May-17 15:35 39.863623 -104.678188 177 5330ft 0kts
25-May-17 15:36 39.864216 -104.678089 228 5330ft 7kts
25-May-17 15:37 39.864238 -104.682268 269 5330ft 18kts
25-May-17 15:38 39.864252 -104.685242 270 5330ft 0kts
25-May-17 15:39 39.864252 -104.685242 270 5330ft 0kts
25-May-17 15:40 39.864252 -104.685242 270 5330ft 0kts
25-May-17 15:41 39.864253 -104.685291 270 5330ft 2kts
25-May-17 15:42 39.865418 -104.687029 359 5330ft 0kts
25-May-17 15:43 39.881341 -104.686848 2 5340ft 170kts
25-May-17 15:44 39.931137 -104.723640 286 7030ft 299kts
25-May-17 15:45 39.901807 -104.829905 242 10943ft 331kts
25-May-17 15:46 39.872407 -104.946554 256 13709ft 362kts
25-May-17 15:47 39.843032 -105.072833 254 16733ft 365kts
25-May-17 15:48 39.813342 -105.196262 253 19041ft 357kts
25-May-17 15:49 39.782800 -105.322510 253 19719ft 381kts
25-May-17 15:50 39.749859 -105.457925 253 19715ft 403kts
25-May-17 15:51 39.716082 -105.595920 253 19705ft 401kts
25-May-17 15:52 39.690958 -105.726552 262 19858ft 392kts
25-May-17 15:53 39.678373 -105.852076 261 20029ft 391kts
25-May-17 15:54 39.662944 -105.991057 261 20023ft 395kts
25-May-17 15:55 39.647244 -106.130102 261 20024ft 398kts
25-May-17 15:56 39.631320 -106.269578 261 20022ft 400kts
25-May-17 15:57 39.597942 -106.405413 247 19948ft 404kts
25-May-17 15:58 39.554761 -106.537300 248 19813ft 397kts
25-May-17 15:59 39.514867 -106.661166 248 19788ft 370kts
25-May-17 16:00 39.484962 -106.754039 248 19818ft 315kts
25-May-17 16:01 39.463959 -106.853286 269 19606ft 273kts
25-May-17 16:02 39.484334 -106.947766 299 18077ft 278kts
25-May-17 16:03 39.546037 -107.003125 348 16608ft 284kts
25-May-17 16:04 39.624011 -106.982791 22 14834ft 296kts
25-May-17 16:05 39.670102 -106.901431 88 13677ft 278kts
25-May-17 16:06 39.658810 -106.807746 123 13124ft 236kts
25-May-17 16:07 39.604853 -106.809912 219 13721ft 220kts
25-May-17 16:08 39.567661 -106.873580 246 13846ft 210kts
25-May-17 16:09 39.542591 -106.935163 242 13613ft 184kts
25-May-17 16:10 39.499088 -106.967008 188 13337ft 200kts
25-May-17 16:11 39.444798 -106.966818 180 13442ft 194kts
25-May-17 16:12 39.398019 -106.946059 173 13050ft 174kts
25-May-17 16:13 39.351457 -106.928101 166 11740ft 177kts
25-May-17 16:14 39.305484 -106.908735 163 10238ft 180kts
25-May-17 16:15 39.259784 -106.886431 162 8669ft 177kts
25-May-17 16:16 39.219346 -106.867004 160 7829ft 61kts
25-May-17 16:17 39.218979 -106.865680 339 7830ft 15kts

Navigation Log

Ident Type
Flight plan parsing failed, navigation log unavailable